Time;durP1;ratioP1;P1;durP2;ratioP2;P2;SDS_P1;SDS_P2;PMS_P1;PMS_P2;Temp;Humidity;BMP_temperature;BMP_pressure;BME280_temperature;BME280_humidity;BME280_pressure;Samples;Min_cycle;Max_cycle;Signal;HPM_P1;HPM_P2
2022/05/08 00:01:04;;;;;;;0.50;0.40;;;;;;;13.55;100.00;95814.06;5110692;28;20470;-60
2022/05/08 00:03:34;;;;;;;0.93;0.50;;;;;;;13.60;100.00;95813.22;5110124;28;20462;-61
2022/05/08 00:06:10;;;;;;;0.53;0.30;;;;;;;13.65;100.00;95807.88;5110736;28;20568;-60
2022/05/08 00:08:39;;;;;;;0.40;0.30;;;;;;;13.64;100.00;95809.72;5111088;28;20442;-60
2022/05/08 00:11:08;;;;;;;0.50;0.30;;;;;;;13.62;100.00;95808.41;5110636;28;20508;-60
2022/05/08 00:13:36;;;;;;;0.50;0.30;;;;;;;13.43;100.00;95810.94;5110644;28;20446;-60
2022/05/08 00:16:05;;;;;;;0.43;0.27;;;;;;;13.00;100.00;95739.78;5110764;28;20463;-60
2022/05/08 00:18:35;;;;;;;0.40;0.30;;;;;;;13.34;100.00;95805.38;5110401;28;20863;-60
2022/05/08 00:21:05;;;;;;;0.60;0.30;;;;;;;13.43;100.00;95805.63;5109881;28;20484;-60
2022/05/08 00:23:33;;;;;;;1.37;1.30;;;;;;;13.51;100.00;95813.00;5110053;28;20458;-60
2022/05/08 00:26:02;;;;;;;0.33;0.20;;;;;;;13.53;100.00;95810.88;5110081;28;20458;-59
2022/05/08 00:28:30;;;;;;;0.97;0.40;;;;;;;13.52;100.00;95806.63;5109933;28;20463;-60
2022/05/08 00:30:59;;;;;;;0.40;0.40;;;;;;;13.48;100.00;95802.13;5111333;28;20882;-60
2022/05/08 00:33:27;;;;;;;0.87;0.87;;;;;;;13.40;100.00;95802.69;5114170;28;20458;-60
2022/05/08 00:35:57;;;;;;;0.40;0.30;;;;;;;13.31;100.00;95799.78;5113719;28;20467;-60
2022/05/08 00:38:25;;;;;;;0.37;0.20;;;;;;;13.17;100.00;95796.16;5113765;28;20471;-60
2022/05/08 00:40:54;;;;;;;0.40;0.20;;;;;;;13.24;100.00;95808.09;5113538;28;20471;-60
2022/05/08 00:43:32;;;;;;;0.40;0.30;;;;;;;13.17;100.00;95809.47;5113303;28;20470;-60
2022/05/08 00:46:02;;;;;;;0.40;0.20;;;;;;;13.13;100.00;95805.75;5113694;28;20435;-60
2022/05/08 00:48:31;;;;;;;0.60;0.60;;;;;;;13.06;100.00;95808.69;5114092;28;20435;-59
2022/05/08 00:51:02;;;;;;;0.40;0.30;;;;;;;12.98;100.00;95809.22;5113985;28;20466;-60
2022/05/08 00:53:35;;;;;;;0.47;0.33;;;;;;;12.93;100.00;95809.25;5114227;28;20423;-60
2022/05/08 00:56:06;;;;;;;0.57;0.30;;;;;;;13.07;100.00;95806.84;5113827;28;20492;-59
2022/05/08 00:58:35;;;;;;;0.50;0.50;;;;;;;12.91;100.00;95805.25;5113829;28;20467;-59
2022/05/08 01:01:04;;;;;;;0.40;0.30;;;;;;;12.74;100.00;95803.72;5113717;28;20459;-58
2022/05/08 01:03:33;;;;;;;0.37;0.23;;;;;;;12.17;100.00;95805.94;5113204;28;20447;-58
2022/05/08 01:06:07;;;;;;;0.50;0.30;;;;;;;12.56;100.00;95804.31;5113709;28;21054;-59
2022/05/08 01:08:37;;;;;;;0.40;0.30;;;;;;;12.79;100.00;95810.91;5113232;28;20467;-58
2022/05/08 01:11:07;;;;;;;0.50;0.30;;;;;;;12.72;100.00;95781.13;5113493;28;20442;-58
2022/05/08 01:13:36;;;;;;;0.50;0.37;;;;;;;12.88;100.00;95795.97;5113438;28;21029;-58
2022/05/08 01:16:08;;;;;;;0.43;0.40;;;;;;;12.77;100.00;95778.47;5113566;28;20475;-58
2022/05/08 01:18:42;;;;;;;0.30;0.20;;;;;;;12.89;100.00;95796.75;5113331;28;20430;-58
2022/05/08 01:21:14;;;;;;;0.60;0.40;;;;;;;12.95;100.00;95793.03;5113490;28;20444;-58
2022/05/08 01:23:45;;;;;;;3.40;0.90;;;;;;;12.57;100.00;95789.16;5113282;28;20435;-58
2022/05/08 01:26:21;;;;;;;0.40;0.30;;;;;;;12.30;100.00;95794.78;5113353;28;20435;-58
2022/05/08 01:28:49;;;;;;;0.40;0.30;;;;;;;11.82;100.00;95785.50;5113243;28;20434;-58
2022/05/08 01:31:18;;;;;;;0.40;0.40;;;;;;;11.57;100.00;95808.53;5113341;28;20514;-58
2022/05/08 01:33:46;;;;;;;0.40;0.30;;;;;;;11.64;100.00;95803.78;5113451;28;20463;-58
2022/05/08 01:36:15;;;;;;;0.40;0.30;;;;;;;11.92;100.00;95805.94;5112354;28;20509;-58
2022/05/08 01:38:45;;;;;;;0.40;0.20;;;;;;;11.68;100.00;95803.03;5113180;28;20440;-58
2022/05/08 01:41:13;;;;;;;0.40;0.30;;;;;;;11.92;100.00;95801.44;5112983;28;20554;-58
2022/05/08 01:43:42;;;;;;;0.40;0.30;;;;;;;11.57;100.00;95805.88;5112792;28;20501;-58
2022/05/08 01:46:10;;;;;;;1.40;1.37;;;;;;;11.81;100.00;95804.34;5113269;28;20457;-58
2022/05/08 01:48:39;;;;;;;0.40;0.30;;;;;;;11.91;100.00;95761.88;5106154;28;20443;-58
2022/05/08 01:51:07;;;;;;;0.57;0.57;;;;;;;12.18;100.00;95801.44;5092472;28;20501;-58
2022/05/08 01:53:36;;;;;;;1.53;1.43;;;;;;;12.09;100.00;95794.00;5092380;28;20971;-58
2022/05/08 01:56:08;;;;;;;0.30;0.30;;;;;;;12.22;100.00;95800.63;5092520;28;20479;-58
2022/05/08 01:58:37;;;;;;;0.40;0.30;;;;;;;12.33;100.00;95804.06;5092361;28;20436;-58
2022/05/08 02:01:09;;;;;;;0.40;0.30;;;;;;;11.48;100.00;95712.72;5092288;28;20515;-59
2022/05/08 02:03:39;;;;;;;0.40;0.30;;;;;;;12.21;100.00;95792.94;5092397;28;20498;-58
2022/05/08 02:06:10;;;;;;;0.40;0.40;;;;;;;12.30;100.00;95796.63;5092595;28;20962;-58
2022/05/08 02:08:38;;;;;;;0.40;0.30;;;;;;;12.17;100.00;95767.97;5092543;28;20494;-58
2022/05/08 02:11:08;;;;;;;0.40;0.20;;;;;;;12.22;100.00;95790.00;5092181;28;20523;-59
2022/05/08 02:13:37;;;;;;;0.40;0.30;;;;;;;12.11;100.00;95769.81;5092146;28;20440;-58
2022/05/08 02:16:05;;;;;;;0.40;0.30;;;;;;;12.23;100.00;95791.59;5092080;28;21099;-59
2022/05/08 02:18:34;;;;;;;0.90;0.77;;;;;;;12.06;100.00;95801.72;5092234;28;20432;-57
2022/05/08 02:21:02;;;;;;;0.40;0.30;;;;;;;12.19;100.00;95795.88;5092197;28;20472;-57
2022/05/08 02:23:31;;;;;;;0.40;0.30;;;;;;;12.26;100.00;95795.56;5091958;28;20468;-57
2022/05/08 02:25:59;;;;;;;0.30;0.20;;;;;;;12.21;100.00;95796.38;5092171;28;20476;-58
2022/05/08 02:28:29;;;;;;;0.40;0.20;;;;;;;12.15;100.00;95794.78;5091919;28;20432;-57
2022/05/08 02:30:58;;;;;;;0.40;0.30;;;;;;;12.14;100.00;95795.06;5092040;28;20524;-57
2022/05/08 02:33:26;;;;;;;0.30;0.20;;;;;;;12.14;100.00;95789.75;5092113;28;20496;-58
2022/05/08 02:35:55;;;;;;;0.40;0.30;;;;;;;12.17;100.00;95797.97;5091588;28;20432;-58
2022/05/08 02:38:24;;;;;;;0.67;0.43;;;;;;;12.19;100.00;95779.13;5091740;28;20452;-57
2022/05/08 02:40:53;;;;;;;0.33;0.30;;;;;;;12.13;100.00;95791.59;5091569;28;20471;-57
2022/05/08 02:43:21;;;;;;;0.50;0.30;;;;;;;12.04;100.00;95793.22;5091346;28;20420;-57
2022/05/08 02:45:51;;;;;;;0.40;0.30;;;;;;;9.79;100.00;95450.50;5091797;28;20553;-57
2022/05/08 02:48:20;;;;;;;0.40;0.30;;;;;;;12.02;100.00;95787.34;5091837;28;20856;-58
2022/05/08 02:50:48;;;;;;;0.90;0.90;;;;;;;12.01;100.00;95789.22;5091472;28;20841;-58
2022/05/08 02:53:17;;;;;;;0.30;0.20;;;;;;;12.04;100.00;95794.00;5090552;28;20536;-58
2022/05/08 02:58:34;;;;;;;0.57;0.57;;;;;;;12.09;100.00;95785.25;5065248;28;20472;-57
2022/05/08 03:01:06;;;;;;;1.13;0.50;;;;;;;11.84;100.00;95753.38;5091211;28;20475;-57
2022/05/08 03:03:35;;;;;;;0.40;0.20;;;;;;;12.01;100.00;95791.88;5091140;28;20448;-57
2022/05/08 03:06:04;;;;;;;2.60;0.60;;;;;;;11.94;100.00;95791.34;5091189;28;20519;-57
2022/05/08 03:08:33;;;;;;;0.40;0.20;;;;;;;12.16;100.00;95807.03;5091454;28;20567;-57
2022/05/08 03:13:47;;;;;;;0.40;0.30;;;;;;;11.39;100.00;95807.97;5091216;28;20485;-58
2022/05/08 03:16:18;;;;;;;0.40;0.20;;;;;;;10.81;100.00;95816.25;5091342;28;20460;-58
2022/05/08 03:18:47;;;;;;;0.40;0.30;;;;;;;10.78;100.00;95822.84;5090951;28;20918;-57
2022/05/08 03:21:16;;;;;;;0.73;0.73;;;;;;;11.06;100.00;95813.69;5094867;28;20482;-57
2022/05/08 03:23:46;;;;;;;1.03;0.40;;;;;;;10.89;100.00;95775.19;5110096;28;20508;-58
2022/05/08 03:26:19;;;;;;;0.43;0.43;;;;;;;10.27;100.00;95762.66;5111206;28;20431;-58
2022/05/08 03:28:48;;;;;;;0.43;0.43;;;;;;;10.67;100.00;95823.88;5111386;28;20411;-58
2022/05/08 03:31:18;;;;;;;0.40;0.30;;;;;;;10.24;100.00;95810.09;5111267;28;20507;-57
2022/05/08 03:33:47;;;;;;;0.83;0.83;;;;;;;9.74;100.00;95831.63;5111320;28;20522;-59
2022/05/08 03:36:15;;;;;;;1.13;1.13;;;;;;;9.85;100.00;95839.41;5111125;28;21055;-57
2022/05/08 03:38:45;;;;;;;0.97;0.97;;;;;;;10.00;100.00;95836.88;5110871;28;21201;-58
2022/05/08 03:41:15;;;;;;;0.60;0.50;;;;;;;10.25;100.00;95838.16;5111275;28;20502;-59
2022/05/08 03:43:46;;;;;;;1.07;0.77;;;;;;;10.46;100.00;95824.00;5110846;28;20474;-58
2022/05/08 03:46:15;;;;;;;0.50;0.40;;;;;;;10.46;100.00;95826.66;5111126;28;20431;-58
2022/05/08 03:48:45;;;;;;;0.37;0.27;;;;;;;10.79;100.00;95834.28;5111425;28;20424;-58
2022/05/08 03:51:14;;;;;;;0.30;0.30;;;;;;;10.87;100.00;95830.34;5110620;28;21009;-58
2022/05/08 03:53:43;;;;;;;0.50;0.40;;;;;;;10.73;100.00;95830.78;5110822;28;20419;-58
2022/05/08 03:56:11;;;;;;;0.40;0.33;;;;;;;10.31;100.00;95774.38;5111055;28;20506;-58
2022/05/08 03:58:39;;;;;;;0.40;0.30;;;;;;;10.71;100.00;95843.50;5110879;28;20988;-59
2022/05/08 04:01:08;;;;;;;0.83;0.60;;;;;;;10.50;100.00;95825.88;5110736;28;20463;-58
2022/05/08 04:03:36;;;;;;;0.60;0.60;;;;;;;10.70;100.00;95826.00;5110882;28;20446;-58
2022/05/08 04:06:06;;;;;;;1.53;0.53;;;;;;;11.13;100.00;95837.34;5114294;28;20460;-58
2022/05/08 04:08:35;;;;;;;0.40;0.37;;;;;;;11.22;100.00;95841.09;5115511;28;20506;-57
2022/05/08 04:11:03;;;;;;;0.50;0.40;;;;;;;11.50;100.00;95848.63;5115078;28;20463;-58
2022/05/08 04:13:32;;;;;;;1.40;1.33;;;;;;;11.60;100.00;95845.19;5115183;28;20443;-58
2022/05/08 04:16:21;;;;;;;0.40;0.40;;;;;;;11.64;100.00;95831.09;5114224;28;20439;-58
2022/05/08 04:18:51;;;;;;;1.50;1.50;;;;;;;11.50;100.00;95853.94;5114726;28;20430;-59
2022/05/08 04:21:20;;;;;;;0.63;0.60;;;;;;;11.39;100.00;95855.75;5114579;28;20474;-59
2022/05/08 04:26:35;;;;;;;0.30;0.30;;;;;;;11.22;100.00;95862.31;5114810;28;20521;-59
2022/05/08 04:29:04;;;;;;;0.40;0.37;;;;;;;11.32;100.00;95863.16;5114493;28;20515;-59
2022/05/08 04:31:33;;;;;;;0.33;0.27;;;;;;;10.95;100.00;95867.78;5115090;28;20484;-58
2022/05/08 04:34:02;;;;;;;0.40;0.30;;;;;;;10.81;100.00;95871.94;5114457;28;20484;-59
2022/05/08 04:36:32;;;;;;;0.70;0.70;;;;;;;11.53;100.00;95868.53;5114410;28;20512;-58
2022/05/08 04:39:00;;;;;;;0.60;0.60;;;;;;;11.32;100.00;95875.63;5114448;28;20429;-60
2022/05/08 04:41:29;;;;;;;0.60;0.50;;;;;;;11.72;100.00;95869.66;5114274;28;20532;-58
2022/05/08 04:44:00;;;;;;;0.40;0.40;;;;;;;11.85;100.00;95875.28;5114151;28;20502;-59
2022/05/08 04:46:29;;;;;;;0.60;0.60;;;;;;;11.62;100.00;95875.72;5114469;28;20475;-59
2022/05/08 04:48:58;;;;;;;0.40;0.30;;;;;;;11.94;100.00;95873.69;5114343;28;21254;-59
2022/05/08 04:51:26;;;;;;;0.73;0.73;;;;;;;12.31;100.00;95873.47;5112647;28;20530;-59
2022/05/08 04:53:56;;;;;;;0.40;0.30;;;;;;;12.00;100.00;95792.13;5093739;28;20918;-59
2022/05/08 04:56:25;;;;;;;0.50;0.40;;;;;;;12.17;100.00;95866.28;5093680;28;20934;-59
2022/05/08 04:58:53;;;;;;;0.77;0.77;;;;;;;11.54;100.00;95868.25;5094257;28;20563;-60
2022/05/08 05:01:21;;;;;;;0.50;0.37;;;;;;;12.14;100.00;95880.91;5097227;28;20472;-59
2022/05/08 05:03:50;;;;;;;0.40;0.30;;;;;;;11.99;100.00;95864.94;5093939;28;20629;-59
2022/05/08 05:06:25;;;;;;;0.40;0.30;;;;;;;11.96;100.00;95881.41;5093921;28;20463;-59
2022/05/08 05:08:53;;;;;;;0.47;0.40;;;;;;;11.79;100.00;95875.53;5093788;28;20545;-60
2022/05/08 05:11:23;;;;;;;0.70;0.60;;;;;;;12.44;100.00;95878.25;5093298;28;20464;-59
2022/05/08 05:13:51;;;;;;;0.50;0.30;;;;;;;12.25;100.00;95874.50;5093778;28;20433;-59
2022/05/08 05:16:20;;;;;;;0.37;0.20;;;;;;;12.29;100.00;95870.28;5092506;28;20990;-59
2022/05/08 05:18:48;;;;;;;0.93;0.93;;;;;;;12.79;100.00;95882.72;5093787;28;20459;-59
2022/05/08 05:21:17;;;;;;;0.40;0.40;;;;;;;12.69;100.00;95864.13;5110295;28;20561;-59
2022/05/08 05:23:45;;;;;;;0.57;0.47;;;;;;;12.64;100.00;95872.91;5113639;28;20523;-60
2022/05/08 05:26:13;;;;;;;0.50;0.40;;;;;;;12.60;100.00;95873.69;5113508;28;20486;-60
2022/05/08 05:28:44;;;;;;;0.40;0.30;;;;;;;12.83;100.00;95875.78;5107547;28;20429;-60
2022/05/08 05:31:13;;;;;;;0.50;0.40;;;;;;;12.98;100.00;95874.97;5114243;28;20474;-60
2022/05/08 05:33:42;;;;;;;1.27;1.27;;;;;;;13.17;99.49;95814.78;5113923;28;20439;-60
2022/05/08 05:36:11;;;;;;;0.53;0.53;;;;;;;13.14;99.47;95863.22;5113372;28;20492;-60
2022/05/08 05:38:39;;;;;;;0.73;0.73;;;;;;;13.80;92.84;95869.84;5112153;28;20510;-61
2022/05/08 05:41:07;;;;;;;0.70;0.53;;;;;;;13.71;93.04;95874.16;5112224;28;20500;-62
2022/05/08 05:43:36;;;;;;;0.53;0.40;;;;;;;13.13;95.50;95873.06;5113100;28;20519;-62
2022/05/08 05:48:51;;;;;;;0.60;0.60;;;;;;;12.99;99.00;95868.56;5101852;28;20531;-61
2022/05/08 05:51:20;;;;;;;1.10;1.10;;;;;;;13.10;100.00;95864.84;5111016;28;20474;-61
2022/05/08 05:53:48;;;;;;;0.53;0.53;;;;;;;12.92;100.00;95857.41;5114116;28;20496;-62
2022/05/08 05:56:17;;;;;;;0.43;0.43;;;;;;;13.54;100.00;95812.47;5113734;28;20496;-62
2022/05/08 05:58:45;;;;;;;0.70;0.67;;;;;;;13.64;97.13;95860.34;5113804;28;20952;-62
2022/05/08 06:01:15;;;;;;;0.57;0.57;;;;;;;14.47;92.11;95853.09;5113586;28;20453;-62
2022/05/08 06:03:43;;;;;;;1.07;1.07;;;;;;;14.49;93.79;95856.31;5113976;28;20975;-62
2022/05/08 06:06:12;;;;;;;0.73;0.70;;;;;;;14.40;90.11;95852.66;5106763;28;20478;-63
2022/05/08 06:08:41;;;;;;;0.50;0.30;;;;;;;15.81;83.08;95845.72;5102983;28;20548;-63
2022/05/08 06:11:09;;;;;;;0.40;0.30;;;;;;;16.31;73.14;95843.41;5102874;28;20964;-64
2022/05/08 06:13:37;;;;;;;0.40;0.37;;;;;;;15.34;81.84;95845.00;5102702;28;20431;-65
2022/05/08 06:16:07;;;;;;;0.40;0.40;;;;;;;15.76;78.88;95832.44;5104466;28;20456;-65
2022/05/08 06:18:37;;;;;;;0.50;0.30;;;;;;;16.49;71.92;95835.31;5102475;28;20527;-67
2022/05/08 06:21:06;;;;;;;4.87;0.63;;;;;;;15.98;73.99;95833.75;5098622;28;20840;-65
2022/05/08 06:23:34;;;;;;;0.67;0.63;;;;;;;15.98;78.72;95837.22;5102658;28;20537;-71
2022/05/08 06:26:03;;;;;;;0.77;0.77;;;;;;;15.94;74.16;95832.75;5105289;28;20479;-69
2022/05/08 06:28:32;;;;;;;0.50;0.50;;;;;;;15.72;75.70;95826.09;5095324;28;20523;-62
2022/05/08 06:31:01;;;;;;;0.80;0.50;;;;;;;16.19;75.84;95833.13;5092685;28;20776;-60
2022/05/08 06:33:29;;;;;;;1.33;1.23;;;;;;;16.93;72.60;95832.16;5100921;28;20486;-64
2022/05/08 06:35:59;;;;;;;0.40;0.30;;;;;;;17.62;67.97;95827.59;5101049;28;20470;-62
2022/05/08 06:38:28;;;;;;;0.50;0.40;;;;;;;17.86;65.05;95825.44;5100664;28;20875;-61
2022/05/08 06:40:56;;;;;;;0.63;0.43;;;;;;;17.25;67.68;95825.94;5093362;28;20462;-58
2022/05/08 06:43:24;;;;;;;0.83;0.40;;;;;;;17.08;69.45;95820.34;5092985;28;20525;-70
2022/05/08 06:45:53;;;;;;;0.90;0.60;;;;;;;17.23;68.54;95816.59;5092595;28;20493;-72
2022/05/08 06:48:21;;;;;;;0.60;0.40;;;;;;;17.34;62.92;95826.81;5102673;28;20555;-60
2022/05/08 06:50:50;;;;;;;0.50;0.50;;;;;;;18.46;62.46;95817.88;5108915;28;20883;-60
2022/05/08 06:53:20;;;;;;;0.50;0.40;;;;;;;18.66;58.08;95813.91;5105331;28;20511;-60
2022/05/08 06:55:48;;;;;;;0.40;0.40;;;;;;;18.06;59.89;95816.97;5107153;28;21208;-61
2022/05/08 06:58:17;;;;;;;4.47;0.60;;;;;;;18.56;69.81;95814.97;5109847;28;20475;-53
2022/05/08 07:03:31;;;;;;;2.50;1.00;;;;;;;18.85;56.97;95635.31;5089788;28;20472;-54
2022/05/08 07:06:00;;;;;;;1.10;1.10;;;;;;;19.42;52.79;95753.50;5094774;28;20434;-54
2022/05/08 07:08:30;;;;;;;1.80;0.50;;;;;;;20.50;52.95;95801.78;5110304;28;20430;-53
2022/05/08 07:11:00;;;;;;;1.27;1.17;;;;;;;20.18;57.31;95803.06;5110338;28;20486;-53
2022/05/08 07:13:29;;;;;;;1.10;1.10;;;;;;;19.60;53.26;95798.94;5108603;28;20448;-54
2022/05/08 07:15:58;;;;;;;6.93;0.70;;;;;;;20.13;57.34;95797.84;5097564;28;20479;-54
2022/05/08 07:18:27;;;;;;;1.20;0.90;;;;;;;20.54;55.02;95797.38;5110165;28;20424;-54
2022/05/08 07:20:57;;;;;;;0.50;0.50;;;;;;;20.81;48.73;95794.28;5109510;28;20451;-55
2022/05/08 07:23:26;;;;;;;4.30;0.63;;;;;;;21.47;52.14;95790.03;5109120;28;20574;-54
2022/05/08 07:25:56;;;;;;;2.40;2.20;;;;;;;20.98;52.47;95788.81;5110475;28;20474;-55
2022/05/08 07:28:24;;;;;;;0.50;0.50;;;;;;;21.53;53.20;95772.53;5104675;28;20471;-54
2022/05/08 07:30:52;;;;;;;1.27;1.17;;;;;;;20.46;45.92;95784.69;5098746;28;20448;-63
2022/05/08 07:33:21;;;;;;;0.50;0.40;;;;;;;21.72;43.61;95780.19;5111018;28;20470;-73
2022/05/08 07:38:35;;;;;;;0.80;0.80;;;;;;;20.95;44.09;95767.13;5090480;28;20451;-74
2022/05/08 07:41:05;;;;;;;0.70;0.70;;;;;;;21.34;42.04;95775.69;5090735;28;20941;-72
2022/05/08 07:43:33;;;;;;;1.00;0.43;;;;;;;21.20;43.89;95780.50;5091974;28;20456;-74
2022/05/08 07:46:02;;;;;;;0.50;0.37;;;;;;;21.61;41.62;95771.69;5090840;28;20436;-71
2022/05/08 07:48:31;;;;;;;0.70;0.70;;;;;;;22.63;41.25;95763.88;5090476;28;20432;-73
2022/05/08 07:51:01;;;;;;;0.90;0.90;;;;;;;22.13;43.86;95769.44;5090423;28;20515;-72
2022/05/08 07:53:31;;;;;;;2.63;0.50;;;;;;;21.86;40.53;95775.34;5091774;28;20474;-73
2022/05/08 07:56:00;;;;;;;0.60;0.60;;;;;;;21.37;40.17;95764.25;5090010;28;20471;-70
2022/05/08 07:58:32;;;;;;;0.80;0.60;;;;;;;22.51;39.44;95763.81;5088850;28;20483;-70
2022/05/08 08:01:04;;;;;;;1.33;1.33;;;;;;;22.68;39.83;95763.66;5089528;28;20424;-69
2022/05/08 08:03:34;;;;;;;0.40;0.40;;;;;;;23.52;39.92;95760.22;5089730;28;20682;-70
2022/05/08 08:06:04;;;;;;;1.63;1.53;;;;;;;22.85;38.77;95770.78;5089636;28;20420;-70
2022/05/08 08:08:37;;;;;;;0.50;0.43;;;;;;;23.25;38.67;95769.78;5089904;28;20421;-69
2022/05/08 08:11:06;;;;;;;0.60;0.60;;;;;;;23.17;37.30;95759.88;5089601;28;21140;-69
2022/05/08 08:13:36;;;;;;;0.50;0.40;;;;;;;23.72;38.63;95743.06;5091726;28;20490;-68
2022/05/08 08:16:06;;;;;;;0.93;0.93;;;;;;;23.47;37.36;95751.56;5091617;28;20420;-66
2022/05/08 08:18:34;;;;;;;1.53;0.50;;;;;;;24.21;37.15;95751.81;5091409;28;20942;-65
2022/05/08 08:21:09;;;;;;;0.67;0.40;;;;;;;24.63;36.19;95741.34;5091320;28;20921;-66
2022/05/08 08:23:38;;;;;;;0.40;0.30;;;;;;;25.15;35.10;95746.53;5091180;28;20513;-66
2022/05/08 08:26:07;;;;;;;0.70;0.70;;;;;;;24.51;35.05;95746.84;5091327;28;20481;-66
2022/05/08 08:28:38;;;;;;;0.90;0.50;;;;;;;23.49;35.54;95750.09;5091163;28;20503;-68
2022/05/08 08:31:07;;;;;;;0.50;0.50;;;;;;;23.75;36.10;95736.97;5090992;28;20485;-65
2022/05/08 08:33:38;;;;;;;0.63;0.50;;;;;;;23.45;34.16;95719.44;5092624;28;20945;-65
2022/05/08 08:36:11;;;;;;;0.60;0.60;;;;;;;23.62;33.83;95746.22;5092339;28;20420;-66
2022/05/08 08:38:41;;;;;;;0.67;0.67;;;;;;;23.77;34.47;95734.69;5091993;28;20459;-64
2022/05/08 08:41:12;;;;;;;0.50;0.47;;;;;;;24.28;34.09;95737.69;5091361;28;20443;-66
2022/05/08 08:49:23;;;;;;;0.40;0.30;;;;;;;25.41;28.37;95733.22;5091256;28;20838;-64
2022/05/08 08:51:52;;;;;;;1.37;1.37;;;;;;;25.36;28.42;95722.63;5092274;28;20507;-64
2022/05/08 08:54:22;;;;;;;0.73;0.47;;;;;;;25.34;30.10;95700.50;5095267;28;20420;-64
2022/05/08 08:56:51;;;;;;;0.40;0.40;;;;;;;25.14;28.52;95688.00;5094955;28;20790;-64
2022/05/08 08:59:26;;;;;;;0.60;0.50;;;;;;;24.79;28.92;95717.78;5094876;28;20432;-62
2022/05/08 09:01:55;;;;;;;0.30;0.20;;;;;;;25.79;26.14;95717.03;5094640;28;20778;-64
2022/05/08 09:04:24;;;;;;;0.80;0.80;;;;;;;24.75;24.04;95706.03;5094602;28;20468;-63
2022/05/08 09:06:52;;;;;;;0.40;0.30;;;;;;;24.38;25.12;95712.81;5094961;28;20452;-63
2022/05/08 09:09:26;;;;;;;0.50;0.30;;;;;;;25.95;24.47;95706.09;5095129;28;20454;-63
2022/05/08 09:11:57;;;;;;;0.40;0.30;;;;;;;26.09;23.48;95706.38;5095905;28;20477;-63
2022/05/08 09:14:31;;;;;;;0.50;0.40;;;;;;;25.40;21.57;95707.19;5095953;28;20452;-63
2022/05/08 09:17:01;;;;;;;1.37;1.03;;;;;;;25.38;22.74;95706.78;5094202;28;20447;-63
2022/05/08 09:19:36;;;;;;;0.40;0.40;;;;;;;24.77;22.82;95694.84;5094621;28;20543;-63
2022/05/08 09:22:05;;;;;;;0.40;0.30;;;;;;;25.24;23.41;95674.69;5095276;28;20789;-62
2022/05/08 09:24:35;;;;;;;2.93;0.63;;;;;;;25.96;19.76;95696.78;5094514;28;20486;-61
2022/05/08 09:27:13;;;;;;;0.30;0.30;;;;;;;26.09;19.60;95690.06;5095753;28;20425;-62
2022/05/08 09:29:44;;;;;;;0.43;0.40;;;;;;;25.18;20.49;95670.66;5095639;28;20424;-64
2022/05/08 09:32:38;;;;;;;0.40;0.30;;;;;;;25.71;22.15;95701.72;5094488;28;20432;-63
2022/05/08 09:35:08;;;;;;;0.40;0.30;;;;;;;26.79;21.71;95692.56;5094562;28;20488;-61
2022/05/08 09:37:52;;;;;;;0.40;0.30;;;;;;;26.01;22.78;95682.16;5094216;28;20421;-61
2022/05/08 09:40:22;;;;;;;0.40;0.30;;;;;;;27.35;22.61;95677.09;5094179;28;20481;-61
2022/05/08 09:42:50;;;;;;;0.80;0.63;;;;;;;27.40;21.67;95600.59;5094001;28;20949;-61
2022/05/08 09:45:20;;;;;;;1.70;0.80;;;;;;;28.35;21.30;95660.88;5093498;28;21001;-61
2022/05/08 09:47:49;;;;;;;0.50;0.30;;;;;;;27.48;23.83;95661.34;5093893;28;20447;-61
2022/05/08 09:50:19;;;;;;;2.03;1.87;;;;;;;27.69;22.97;95662.44;5094137;28;20456;-61
2022/05/08 09:52:47;;;;;;;0.50;0.50;;;;;;;26.20;23.13;95644.91;5093641;28;20516;-61
2022/05/08 09:55:16;;;;;;;0.47;0.40;;;;;;;27.10;22.08;95654.97;5093603;28;20428;-62
2022/05/08 09:57:45;;;;;;;8.60;0.57;;;;;;;27.89;23.68;95654.09;5093438;28;20421;-62
2022/05/08 10:00:16;;;;;;;0.40;0.30;;;;;;;28.30;22.14;95639.41;5094259;28;20493;-60
2022/05/08 10:02:46;;;;;;;0.40;0.30;;;;;;;28.40;21.02;95643.38;5093777;28;20809;-61
2022/05/08 10:05:16;;;;;;;0.50;0.43;;;;;;;28.93;19.30;95636.47;5094153;28;20491;-60
2022/05/08 10:07:45;;;;;;;0.70;0.37;;;;;;;28.23;20.88;95587.53;5094333;28;20416;-61
2022/05/08 10:15:48;;;;;;;0.50;0.40;;;;;;;27.53;19.36;95634.59;5092975;28;20436;-61
2022/05/08 10:18:27;;;;;;;0.37;0.30;;;;;;;29.07;19.25;95627.63;5093429;28;20464;-59
2022/05/08 10:21:25;;;;;;;1.03;0.30;;;;;;;29.16;17.58;95628.84;5094777;28;20416;-61
2022/05/08 10:23:55;;;;;;;0.93;0.40;;;;;;;28.10;18.08;95594.44;5094776;28;20531;-61
2022/05/08 10:26:25;;;;;;;0.40;0.40;;;;;;;28.62;18.38;95602.31;5095218;28;20440;-61
2022/05/08 10:29:15;;;;;;;0.30;0.20;;;;;;;28.87;18.11;95616.94;5095042;28;20427;-61
2022/05/08 10:31:48;;;;;;;0.50;0.50;;;;;;;26.93;18.40;95619.34;5095207;28;20778;-61
2022/05/08 10:34:32;;;;;;;0.80;0.80;;;;;;;27.16;18.50;95611.91;5096769;28;20421;-61
2022/05/08 10:37:28;;;;;;;0.30;0.20;;;;;;;27.45;18.24;95613.88;5097228;28;20429;-62
2022/05/08 10:40:01;;;;;;;0.40;0.40;;;;;;;28.94;16.22;95573.31;5096556;28;20439;-62
2022/05/08 10:42:42;;;;;;;0.80;0.30;;;;;;;29.68;16.28;95592.06;5095357;28;20875;-62
2022/05/08 10:45:41;;;;;;;0.77;0.63;;;;;;;29.32;17.46;95596.56;5092451;28;20558;-61
2022/05/08 10:48:12;;;;;;;0.40;0.40;;;;;;;28.79;17.08;95585.31;5093329;28;20459;-61
2022/05/08 10:50:45;;;;;;;0.40;0.30;;;;;;;28.87;18.50;95589.66;5094455;28;20424;-61
2022/05/08 10:53:24;;;;;;;0.90;0.50;;;;;;;29.72;19.37;95581.94;5093844;28;20440;-61
2022/05/08 10:55:53;;;;;;;0.80;0.30;;;;;;;29.40;18.64;95578.28;5092300;28;20794;-61
2022/05/08 10:58:22;;;;;;;0.40;0.37;;;;;;;29.23;18.69;95578.97;5092267;28;20450;-61
2022/05/08 11:00:58;;;;;;;0.30;0.20;;;;;;;29.73;17.93;95558.91;5092482;28;20489;-61
2022/05/08 11:03:28;;;;;;;0.40;0.30;;;;;;;30.63;18.27;95567.69;5092186;28;20420;-61
2022/05/08 11:05:59;;;;;;;0.30;0.30;;;;;;;30.71;17.93;95560.25;5091872;28;20989;-61
2022/05/08 11:08:30;;;;;;;0.40;0.30;;;;;;;29.73;17.99;95567.09;5092045;28;20930;-60
2022/05/08 11:11:09;;;;;;;0.43;0.30;;;;;;;29.97;17.20;95565.63;5092869;28;20503;-60
2022/05/08 11:13:40;;;;;;;0.30;0.20;;;;;;;29.82;16.30;95553.91;5092487;28;20497;-60
2022/05/08 11:16:09;;;;;;;0.70;0.70;;;;;;;29.60;15.65;95546.75;5091891;28;20478;-60
2022/05/08 11:18:38;;;;;;;0.70;0.30;;;;;;;30.11;15.68;95544.56;5092412;28;20491;-60
2022/05/08 11:21:09;;;;;;;0.63;0.63;;;;;;;28.28;18.70;95543.59;5092054;28;20925;-60
2022/05/08 11:23:43;;;;;;;1.13;0.40;;;;;;;29.04;19.13;95547.28;5091878;28;20428;-60
2022/05/08 11:26:13;;;;;;;0.50;0.40;;;;;;;28.37;19.63;95543.25;5092088;28;20467;-60
2022/05/08 11:28:49;;;;;;;0.70;0.60;;;;;;;28.28;20.64;95538.13;5092042;28;20874;-61
2022/05/08 11:31:20;;;;;;;0.80;0.70;;;;;;;28.34;21.16;95544.78;5091903;28;20454;-62
2022/05/08 11:36:38;;;;;;;0.40;0.30;;;;;;;29.47;21.89;95534.63;5092138;28;20431;-61
2022/05/08 11:39:11;;;;;;;1.13;1.03;;;;;;;28.09;20.46;95492.00;5092178;28;20416;-61
2022/05/08 11:41:41;;;;;;;0.40;0.30;;;;;;;28.53;21.66;95525.47;5092183;28;20496;-61
2022/05/08 11:44:24;;;;;;;1.47;0.77;;;;;;;27.72;22.09;95519.28;5091468;28;20475;-62
2022/05/08 11:46:56;;;;;;;0.40;0.30;;;;;;;28.65;21.03;95522.47;5091911;28;20420;-62
2022/05/08 11:49:26;;;;;;;0.30;0.20;;;;;;;28.76;20.61;95470.72;5091965;28;20861;-62
2022/05/08 11:51:58;;;;;;;0.40;0.30;;;;;;;27.91;21.21;95513.63;5092060;28;20455;-62
2022/05/08 11:54:32;;;;;;;0.50;0.40;;;;;;;27.92;20.24;95508.97;5091795;28;20489;-62
2022/05/08 11:57:15;;;;;;;0.40;0.30;;;;;;;28.14;20.02;95502.56;5091945;28;20454;-62
2022/05/08 11:59:45;;;;;;;0.87;0.87;;;;;;;28.17;20.43;95501.81;5091884;28;20499;-61
2022/05/08 12:02:14;;;;;;;0.30;0.30;;;;;;;29.62;19.87;95500.72;5091886;28;20412;-62
2022/05/08 12:04:53;;;;;;;0.40;0.30;;;;;;;29.62;18.30;95492.53;5091747;28;20472;-62
2022/05/08 12:07:23;;;;;;;0.70;0.60;;;;;;;26.99;18.37;95439.09;5091910;28;20873;-62
2022/05/08 12:09:56;;;;;;;0.50;0.33;;;;;;;26.86;18.70;95494.13;5091814;28;20532;-63
2022/05/08 12:12:29;;;;;;;1.70;0.33;;;;;;;27.57;18.08;95484.88;5091379;28;20924;-63
2022/05/08 12:15:01;;;;;;;1.37;0.60;;;;;;;27.21;18.33;95480.94;5091656;28;20458;-63